Time;durP1;ratioP1;P1;durP2;ratioP2;P2;SDS_P1;SDS_P2;PMS_P1;PMS_P2;Temp;Humidity;BMP_temperature;BMP_pressure;BME280_temperature;BME280_humidity;BME280_pressure;Samples;Min_cycle;Max_cycle;Signal;HPM_P1;HPM_P2
2022/11/05 00:10:09;;;;;;;6.15;2.97;;;;;;;;;;5033028;28;20053;-82
2022/11/05 00:18:05;;;;;;;9.05;3.17;;;;;;;;;;5033150;28;20412;-82
2022/11/05 00:20:31;;;;;;;7.80;3.22;;;;;;;;;;5033744;28;20045;-82
2022/11/05 00:25:55;;;;;;;5.53;2.53;;;;;;;;;;5032819;28;20100;-82
2022/11/05 00:28:21;;;;;;;4.95;2.78;;;;;;;;;;5032839;28;20478;-82
2022/11/05 00:30:47;;;;;;;5.35;2.80;;;;;;;;;;5033213;28;20052;-82
2022/11/05 00:33:13;;;;;;;7.18;3.38;;;;;;;;;;5033133;28;20049;-82
2022/11/05 00:35:39;;;;;;;8.13;2.90;;;;;;;;;;5033000;28;20046;-82
2022/11/05 00:38:05;;;;;;;6.68;2.70;;;;;;;;;;5033026;28;20064;-82
2022/11/05 00:40:31;;;;;;;6.45;3.03;;;;;;;;;;5033091;28;20076;-82
2022/11/05 00:45:42;;;;;;;8.63;3.00;;;;;;;;;;5032552;28;20038;-82
2022/11/05 00:50:53;;;;;;;10.23;3.40;;;;;;;;;;5032740;28;20430;-82
2022/11/05 00:53:19;;;;;;;6.35;2.92;;;;;;;;;;5032888;28;20053;-82
2022/11/05 00:55:45;;;;;;;5.93;3.28;;;;;;;;;;5032747;28;20053;-82
2022/11/05 00:58:19;;;;;;;6.47;2.88;;;;;;;;;;5034612;28;20064;-82
2022/11/05 01:00:49;;;;;;;9.52;3.08;;;;;;;;;;5035471;28;20049;-82
2022/11/05 01:03:16;;;;;;;10.73;3.22;;;;;;;;;;5036290;28;20124;-82
2022/11/05 01:05:43;;;;;;;9.93;3.63;;;;;;;;;;5036308;28;20041;-82
2022/11/05 01:08:09;;;;;;;5.07;2.85;;;;;;;;;;5036309;28;20053;-82
2022/11/05 01:10:40;;;;;;;9.80;3.40;;;;;;;;;;5036353;28;20183;-82
2022/11/05 01:13:06;;;;;;;9.75;3.55;;;;;;;;;;5036163;28;20147;-82
2022/11/05 01:15:34;;;;;;;7.57;3.60;;;;;;;;;;5026291;28;20057;-82
2022/11/05 01:18:00;;;;;;;8.57;2.80;;;;;;;;;;5016459;28;20061;-82
2022/11/05 01:20:26;;;;;;;6.50;3.50;;;;;;;;;;5016062;28;20042;-82
2022/11/05 01:22:52;;;;;;;8.07;3.40;;;;;;;;;;4998599;28;20489;-82
2022/11/05 01:25:18;;;;;;;9.85;3.35;;;;;;;;;;5024057;28;20045;-82
2022/11/05 01:27:45;;;;;;;5.93;3.15;;;;;;;;;;5036058;28;20037;-82
2022/11/05 01:30:12;;;;;;;6.03;2.88;;;;;;;;;;5036029;28;20045;-82
2022/11/05 01:32:38;;;;;;;8.25;2.90;;;;;;;;;;5036023;28;20045;-82
2022/11/05 01:35:05;;;;;;;6.60;3.00;;;;;;;;;;5035818;28;20037;-82
2022/11/05 01:37:31;;;;;;;9.80;3.78;;;;;;;;;;5035889;28;20061;-82
2022/11/05 01:39:57;;;;;;;5.93;2.70;;;;;;;;;;5035743;28;20191;-82
2022/11/05 01:42:24;;;;;;;4.53;2.70;;;;;;;;;;5035747;28;20049;-82
2022/11/05 01:44:50;;;;;;;7.97;2.95;;;;;;;;;;5031707;28;20049;-82
2022/11/05 01:47:23;;;;;;;5.28;2.83;;;;;;;;;;5015659;28;20386;-82
2022/11/05 01:49:49;;;;;;;7.20;3.08;;;;;;;;;;5015898;28;20046;-82
2022/11/05 01:52:15;;;;;;;5.90;2.60;;;;;;;;;;5015859;28;20092;-82
2022/11/05 01:54:42;;;;;;;8.15;2.75;;;;;;;;;;5017878;28;20054;-82
2022/11/05 01:57:09;;;;;;;8.05;2.88;;;;;;;;;;5033967;28;20133;-82
2022/11/05 01:59:38;;;;;;;8.68;2.65;;;;;;;;;;5035498;28;20045;-83
2022/11/05 02:02:06;;;;;;;4.78;2.70;;;;;;;;;;5035161;28;20490;-82
2022/11/05 02:04:44;;;;;;;6.90;2.83;;;;;;;;;;5035231;28;20124;-82
2022/11/05 02:07:10;;;;;;;7.65;2.83;;;;;;;;;;5035457;28;20080;-82
2022/11/05 02:09:41;;;;;;;6.78;2.63;;;;;;;;;;5034240;28;20080;-82
2022/11/05 02:12:09;;;;;;;6.53;2.30;;;;;;;;;;5035400;28;20042;-82
2022/11/05 02:14:35;;;;;;;5.45;2.35;;;;;;;;;;5034810;28;20060;-83
2022/11/05 02:17:05;;;;;;;8.27;3.13;;;;;;;;;;5035185;28;20045;-83
2022/11/05 02:19:31;;;;;;;9.75;2.88;;;;;;;;;;5035123;28;20045;-83
2022/11/05 02:21:57;;;;;;;5.40;2.50;;;;;;;;;;5035080;28;20106;-82
2022/11/05 02:24:29;;;;;;;5.90;2.20;;;;;;;;;;5035125;28;20098;-82
2022/11/05 02:27:07;;;;;;;6.07;2.35;;;;;;;;;;5034625;28;20516;-82
2022/11/05 02:29:33;;;;;;;6.13;2.10;;;;;;;;;;5033497;28;20507;-82
2022/11/05 02:32:02;;;;;;;3.53;2.10;;;;;;;;;;5033374;28;20532;-83
2022/11/05 02:34:47;;;;;;;6.40;2.35;;;;;;;;;;5034300;28;20531;-82
2022/11/05 02:37:31;;;;;;;5.00;2.17;;;;;;;;;;5014957;28;20042;-82
2022/11/05 02:40:17;;;;;;;4.80;2.00;;;;;;;;;;5013896;28;20046;-83
2022/11/05 02:42:46;;;;;;;5.50;2.20;;;;;;;;;;5034463;28;20046;-82
2022/11/05 02:45:16;;;;;;;5.28;2.38;;;;;;;;;;5045108;28;20119;-82
2022/11/05 02:47:45;;;;;;;6.47;1.90;;;;;;;;;;5041439;28;20041;-82
2022/11/05 02:50:34;;;;;;;3.70;2.28;;;;;;;;;;5035194;28;20045;-82
2022/11/05 02:53:10;;;;;;;7.00;2.13;;;;;;;;;;5033827;28;20041;-82
2022/11/05 02:55:46;;;;;;;6.97;2.10;;;;;;;;;;5034349;28;20172;-82
2022/11/05 02:58:12;;;;;;;;;;;;;;;;;;5035632;28;20045;-82
2022/11/05 03:00:54;;;;;;;3.17;1.90;;;;;;;;;;5034423;28;20301;-82
2022/11/05 03:03:29;;;;;;;5.13;2.15;;;;;;;;;;5034350;28;20045;-82
2022/11/05 03:06:20;;;;;;;5.68;2.00;;;;;;;;;;5023926;28;20390;-82
2022/11/05 03:08:46;;;;;;;4.82;2.10;;;;;;;;;;5014501;28;20057;-82
2022/11/05 03:11:17;;;;;;;5.50;2.20;;;;;;;;;;5019072;28;20045;-82
2022/11/05 03:13:46;;;;;;;4.43;2.40;;;;;;;;;;5034111;28;20053;-82
2022/11/05 03:16:17;;;;;;;4.38;2.42;;;;;;;;;;5033834;28;20052;-82
2022/11/05 03:19:02;;;;;;;7.32;2.38;;;;;;;;;;5034196;28;20083;-82
2022/11/05 03:21:37;;;;;;;4.63;2.38;;;;;;;;;;5033933;28;20049;-82
2022/11/05 03:24:08;;;;;;;6.75;2.80;;;;;;;;;;5034083;28;20049;-82
2022/11/05 03:26:55;;;;;;;5.95;2.88;;;;;;;;;;5034870;28;20045;-82
2022/11/05 03:29:25;;;;;;;8.43;2.92;;;;;;;;;;5034140;28;20084;-82
2022/11/05 03:31:53;;;;;;;5.90;2.58;;;;;;;;;;5034177;28;20045;-82
2022/11/05 03:34:21;;;;;;;6.82;2.40;;;;;;;;;;5033875;28;20095;-82
2022/11/05 03:36:50;;;;;;;4.95;2.50;;;;;;;;;;5033586;28;20434;-82
2022/11/05 03:39:34;;;;;;;5.40;2.15;;;;;;;;;;5033780;28;20042;-82
2022/11/05 03:42:01;;;;;;;5.45;2.40;;;;;;;;;;5033812;28;20038;-82
2022/11/05 03:44:30;;;;;;;4.35;2.35;;;;;;;;;;5033746;28;20041;-83
2022/11/05 03:47:00;;;;;;;5.45;2.50;;;;;;;;;;5029340;28;20052;-82
2022/11/05 03:49:29;;;;;;;5.63;2.45;;;;;;;;;;5034015;28;20046;-82
2022/11/05 03:52:04;;;;;;;6.72;2.50;;;;;;;;;;5034019;28;20411;-78
2022/11/05 03:54:30;;;;;;;3.47;2.30;;;;;;;;;;5033314;28;20519;-77
2022/11/05 03:57:08;;;;;;;10.45;2.53;;;;;;;;;;5033304;28;20041;-77
2022/11/05 03:59:44;;;;;;;6.50;2.55;;;;;;;;;;5033343;28;20441;-78
2022/11/05 04:02:11;;;;;;;5.22;2.42;;;;;;;;;;5033095;28;20400;-78
2022/11/05 04:04:37;;;;;;;7.82;2.20;;;;;;;;;;5033229;28;20046;-79
2022/11/05 04:15:18;;;;;;;4.18;2.67;;;;;;;;;;5033329;28;20064;-79
2022/11/05 04:17:44;;;;;;;5.55;2.15;;;;;;;;;;5033190;28;20099;-80
2022/11/05 04:25:47;;;;;;;4.65;2.20;;;;;;;;;;5031204;28;20050;-81
2022/11/05 04:28:13;;;;;;;3.83;2.25;;;;;;;;;;5013433;28;20042;-81
2022/11/05 04:30:40;;;;;;;3.83;2.10;;;;;;;;;;5013416;28;20038;-81
2022/11/05 04:33:13;;;;;;;6.30;2.15;;;;;;;;;;5015246;28;20125;-82
2022/11/05 04:35:43;;;;;;;4.93;2.42;;;;;;;;;;5022344;28;20060;-82
2022/11/05 04:38:10;;;;;;;5.15;2.30;;;;;;;;;;5035537;28;20497;-82
2022/11/05 04:40:36;;;;;;;5.47;2.35;;;;;;;;;;5036966;28;20056;-82
2022/11/05 04:43:03;;;;;;;4.38;3.00;;;;;;;;;;5036810;28;20132;-82
2022/11/05 04:45:31;;;;;;;6.45;2.60;;;;;;;;;;5036741;28;20124;-82
2022/11/05 04:47:57;;;;;;;4.93;2.90;;;;;;;;;;5037351;28;20053;-83
2022/11/05 04:50:23;;;;;;;4.65;2.58;;;;;;;;;;5035806;28;20107;-82
2022/11/05 04:52:49;;;;;;;7.47;2.88;;;;;;;;;;5036542;28;20404;-83
2022/11/05 04:55:15;;;;;;;4.07;2.40;;;;;;;;;;5036455;28;20209;-83
2022/11/05 04:57:41;;;;;;;4.28;2.50;;;;;;;;;;5036638;28;20049;-83
2022/11/05 05:00:08;;;;;;;6.63;3.05;;;;;;;;;;5037044;28;20048;-82
2022/11/05 05:02:35;;;;;;;6.60;2.53;;;;;;;;;;5036397;28;20068;-83
2022/11/05 05:05:01;;;;;;;5.00;2.47;;;;;;;;;;5036165;28;20453;-83
2022/11/05 05:07:27;;;;;;;6.32;3.00;;;;;;;;;;5036707;28;20477;-83
2022/11/05 05:09:53;;;;;;;7.25;2.75;;;;;;;;;;5036074;28;20054;-82
2022/11/05 05:12:20;;;;;;;6.43;2.50;;;;;;;;;;5035983;28;20128;-83
2022/11/05 05:14:47;;;;;;;4.78;2.53;;;;;;;;;;5035871;28;20053;-83
2022/11/05 05:17:14;;;;;;;6.45;2.80;;;;;;;;;;5036291;28;20052;-83
2022/11/05 05:22:24;;;;;;;5.57;2.80;;;;;;;;;;5036224;28;20084;-83
2022/11/05 05:24:51;;;;;;;6.10;2.70;;;;;;;;;;5036196;28;20084;-83
2022/11/05 05:27:17;;;;;;;5.78;3.03;;;;;;;;;;5036048;28;20056;-83
2022/11/05 05:29:43;;;;;;;4.97;2.28;;;;;;;;;;5036070;28;20048;-83
2022/11/05 05:32:09;;;;;;;4.10;2.60;;;;;;;;;;5035906;28;20045;-83
2022/11/05 05:34:35;;;;;;;5.55;2.95;;;;;;;;;;5035978;28;20131;-83
2022/11/05 05:37:01;;;;;;;3.58;2.50;;;;;;;;;;5035860;28;20068;-83
2022/11/05 05:39:27;;;;;;;8.57;2.80;;;;;;;;;;5035879;28;20194;-82
2022/11/05 05:41:54;;;;;;;5.40;2.90;;;;;;;;;;5034225;28;20052;-83
2022/11/05 05:44:20;;;;;;;5.07;2.80;;;;;;;;;;5035519;28;20131;-83
2022/11/05 05:46:46;;;;;;;5.07;3.15;;;;;;;;;;5035708;28;20045;-83
2022/11/05 05:49:12;;;;;;;6.63;3.13;;;;;;;;;;5034649;28;20042;-83
2022/11/05 05:51:38;;;;;;;5.88;3.20;;;;;;;;;;5035572;28;20041;-82
2022/11/05 05:54:04;;;;;;;4.97;2.90;;;;;;;;;;5040768;28;20109;-82
2022/11/05 05:56:31;;;;;;;4.20;3.10;;;;;;;;;;5045681;28;20092;-83
2022/11/05 05:58:57;;;;;;;4.93;2.85;;;;;;;;;;5042842;28;20046;-82
2022/11/05 06:01:23;;;;;;;4.95;3.10;;;;;;;;;;5036400;28;20041;-82
2022/11/05 06:03:49;;;;;;;6.05;2.60;;;;;;;;;;5035872;28;20045;-82
2022/11/05 06:06:18;;;;;;;6.45;2.67;;;;;;;;;;5035485;28;20124;-82
2022/11/05 06:08:44;;;;;;;5.57;2.60;;;;;;;;;;5035370;28;20046;-83
2022/11/05 06:11:10;;;;;;;4.57;2.65;;;;;;;;;;5035144;28;20041;-82
2022/11/05 06:13:37;;;;;;;2.97;2.40;;;;;;;;;;5035299;28;20058;-82
2022/11/05 06:16:07;;;;;;;6.20;2.40;;;;;;;;;;5035191;28;20090;-82
2022/11/05 06:18:33;;;;;;;5.47;2.10;;;;;;;;;;5035229;28;20411;-83
2022/11/05 06:21:07;;;;;;;5.88;2.30;;;;;;;;;;5034964;28;20048;-82
2022/11/05 06:23:34;;;;;;;4.25;2.10;;;;;;;;;;5035028;28;20048;-82
2022/11/05 06:26:01;;;;;;;6.35;2.47;;;;;;;;;;5034642;28;20408;-82
2022/11/05 06:28:28;;;;;;;4.35;2.30;;;;;;;;;;5035034;28;20037;-82
2022/11/05 06:30:54;;;;;;;4.40;2.40;;;;;;;;;;5033770;28;20041;-82
2022/11/05 06:33:20;;;;;;;4.85;2.30;;;;;;;;;;5034907;28;20068;-82
2022/11/05 06:35:46;;;;;;;5.45;2.58;;;;;;;;;;5017900;28;20073;-82
2022/11/05 06:38:12;;;;;;;3.90;2.78;;;;;;;;;;5034410;28;20108;-82
2022/11/05 06:40:38;;;;;;;5.88;2.65;;;;;;;;;;5034287;28;20504;-82
2022/11/05 06:43:04;;;;;;;4.25;2.90;;;;;;;;;;5034467;28;20041;-82
2022/11/05 06:45:30;;;;;;;3.47;2.63;;;;;;;;;;5032977;28;20049;-82
2022/11/05 06:47:57;;;;;;;4.20;2.90;;;;;;;;;;5034278;28;20092;-83
2022/11/05 06:50:23;;;;;;;7.25;3.22;;;;;;;;;;5034356;28;20405;-82
2022/11/05 06:52:56;;;;;;;3.67;2.60;;;;;;;;;;5034144;28;20091;-83
2022/11/05 06:55:22;;;;;;;5.88;2.95;;;;;;;;;;5032649;28;20048;-83
2022/11/05 06:57:49;;;;;;;4.55;2.90;;;;;;;;;;5034138;28;20397;-82
2022/11/05 07:00:15;;;;;;;3.63;2.88;;;;;;;;;;5032962;28;20045;-83
2022/11/05 07:02:41;;;;;;;4.60;3.00;;;;;;;;;;5034223;28;20042;-81
2022/11/05 07:05:10;;;;;;;4.45;2.90;;;;;;;;;;5034723;28;20037;-82
2022/11/05 07:07:36;;;;;;;6.13;3.28;;;;;;;;;;5032696;28;20052;-82
2022/11/05 07:10:03;;;;;;;5.63;3.17;;;;;;;;;;5034055;28;20042;-82
2022/11/05 07:12:29;;;;;;;6.80;3.22;;;;;;;;;;5019134;28;20112;-82
2022/11/05 07:14:55;;;;;;;5.63;4.10;;;;;;;;;;5013933;28;20131;-83
2022/11/05 07:17:21;;;;;;;6.88;3.70;;;;;;;;;;5014196;28;20073;-82
2022/11/05 07:19:47;;;;;;;4.50;3.40;;;;;;;;;;5014234;28;20045;-82
2022/11/05 07:22:13;;;;;;;4.80;3.47;;;;;;;;;;5027471;28;20396;-82
2022/11/05 07:24:39;;;;;;;6.75;4.10;;;;;;;;;;5034281;28;20046;-83
2022/11/05 07:27:05;;;;;;;5.07;3.47;;;;;;;;;;5033827;28;20121;-83
2022/11/05 07:29:31;;;;;;;6.18;4.10;;;;;;;;;;5033797;28;20077;-83
2022/11/05 07:31:57;;;;;;;6.97;4.82;;;;;;;;;;5031763;28;20072;-83
2022/11/05 07:34:23;;;;;;;4.72;3.50;;;;;;;;;;5032204;28;20088;-82
2022/11/05 07:36:49;;;;;;;6.30;4.50;;;;;;;;;;5033809;28;20552;-83
2022/11/05 07:39:16;;;;;;;8.63;5.25;;;;;;;;;;5034192;28;20124;-83
2022/11/05 07:41:42;;;;;;;7.72;3.95;;;;;;;;;;5032318;28;20052;-83
2022/11/05 07:44:08;;;;;;;4.35;3.20;;;;;;;;;;5033534;28;20043;-82
2022/11/05 07:46:34;;;;;;;7.55;3.45;;;;;;;;;;5033258;28;20451;-83
2022/11/05 07:49:00;;;;;;;5.65;3.30;;;;;;;;;;5033067;28;20124;-83
2022/11/05 07:51:26;;;;;;;3.92;3.17;;;;;;;;;;5033486;28;20049;-83
2022/11/05 07:53:52;;;;;;;5.53;3.40;;;;;;;;;;5033580;28;20042;-83
2022/11/05 07:56:18;;;;;;;4.00;3.20;;;;;;;;;;5015792;28;20152;-83
2022/11/05 07:58:44;;;;;;;6.05;3.03;;;;;;;;;;5033594;28;20045;-83
2022/11/05 08:01:10;;;;;;;4.90;2.70;;;;;;;;;;5033378;28;20041;-83
2022/11/05 08:03:36;;;;;;;6.25;3.08;;;;;;;;;;5033062;28;20496;-83
2022/11/05 08:06:02;;;;;;;5.15;2.70;;;;;;;;;;5033552;28;20501;-84
2022/11/05 08:08:28;;;;;;;5.18;2.83;;;;;;;;;;5036101;28;20049;-84
2022/11/05 08:11:01;;;;;;;5.20;3.00;;;;;;;;;;5037429;28;20125;-83
2022/11/05 08:13:27;;;;;;;7.82;3.00;;;;;;;;;;5035450;28;20061;-83
2022/11/05 08:15:55;;;;;;;8.35;2.97;;;;;;;;;;5037650;28;20401;-78
2022/11/05 08:18:21;;;;;;;5.88;2.63;;;;;;;;;;5038126;28;20049;-82
2022/11/05 08:20:47;;;;;;;6.00;2.58;;;;;;;;;;5037901;28;20107;-82
2022/11/05 08:23:13;;;;;;;5.45;2.78;;;;;;;;;;5039194;28;20080;-82
2022/11/05 08:25:40;;;;;;;3.95;2.67;;;;;;;;;;5037247;28;20124;-82
2022/11/05 08:28:07;;;;;;;6.75;2.88;;;;;;;;;;5051275;28;20045;-81
2022/11/05 08:30:34;;;;;;;5.20;3.10;;;;;;;;;;5037979;28;20465;-81
2022/11/05 08:33:01;;;;;;;5.72;3.10;;;;;;;;;;5038731;28;20513;-79
2022/11/05 08:35:28;;;;;;;5.82;3.08;;;;;;;;;;5036355;28;20057;-82
2022/11/05 08:37:57;;;;;;;6.93;3.05;;;;;;;;;;5036985;28;20045;-81
2022/11/05 08:40:24;;;;;;;4.35;2.95;;;;;;;;;;5017303;28;20073;-82
2022/11/05 08:42:50;;;;;;;6.35;3.58;;;;;;;;;;5036461;28;20077;-78
2022/11/05 08:45:16;;;;;;;3.55;3.20;;;;;;;;;;5047082;28;20045;-81
2022/11/05 08:47:42;;;;;;;7.53;3.53;;;;;;;;;;5055391;28;20045;-79
2022/11/05 08:50:08;;;;;;;6.05;2.83;;;;;;;;;;5049084;28;20053;-82
2022/11/05 08:52:34;;;;;;;4.15;2.83;;;;;;;;;;5049588;28;20045;-80
2022/11/05 08:55:01;;;;;;;4.63;3.03;;;;;;;;;;5048887;28;20037;-81
2022/11/05 08:57:27;;;;;;;5.10;2.90;;;;;;;;;;5050629;28;20037;-83
2022/11/05 08:59:53;;;;;;;4.53;2.70;;;;;;;;;;5042732;28;20177;-82
2022/11/05 09:02:19;;;;;;;5.15;2.80;;;;;;;;;;5052928;28;20124;-82
2022/11/05 09:04:45;;;;;;;5.47;2.30;;;;;;;;;;5053733;28;20041;-82
2022/11/05 09:07:11;;;;;;;7.15;2.55;;;;;;;;;;5054278;28;20048;-80
2022/11/05 09:09:37;;;;;;;5.55;2.42;;;;;;;;;;5058909;28;20059;-80
2022/11/05 09:12:03;;;;;;;5.18;2.60;;;;;;;;;;5061555;28;20021;-79
2022/11/05 09:14:30;;;;;;;4.65;2.33;;;;;;;;;;5060528;28;20084;-80
2022/11/05 09:16:56;;;;;;;4.50;2.42;;;;;;;;;;5060696;28;20089;-80
2022/11/05 09:19:22;;;;;;;4.97;2.50;;;;;;;;;;5057744;28;20045;-80
2022/11/05 09:21:48;;;;;;;6.35;2.55;;;;;;;;;;5061212;28;20048;-80
2022/11/05 09:24:14;;;;;;;7.10;2.40;;;;;;;;;;5061024;28;20045;-79
2022/11/05 09:26:40;;;;;;;5.60;2.63;;;;;;;;;;5059113;28;20022;-80
2022/11/05 09:29:06;;;;;;;4.70;2.33;;;;;;;;;;5052725;28;20052;-78
2022/11/05 09:31:32;;;;;;;6.68;2.47;;;;;;;;;;5031755;28;20053;-79
2022/11/05 09:33:58;;;;;;;6.28;2.60;;;;;;;;;;5042947;28;20041;-77
2022/11/05 09:36:24;;;;;;;6.35;2.67;;;;;;;;;;5036976;28;20080;-77
2022/11/05 09:38:50;;;;;;;8.60;2.83;;;;;;;;;;5037601;28;20076;-77
2022/11/05 09:41:32;;;;;;;5.25;2.72;;;;;;;;;;5043498;28;20045;-76
2022/11/05 09:44:07;;;;;;;3.97;2.50;;;;;;;;;;5044937;28;20377;-80
2022/11/05 09:46:43;;;;;;;5.13;2.47;;;;;;;;;;5037391;28;20049;-79
2022/11/05 09:49:15;;;;;;;4.82;2.83;;;;;;;;;;5035572;28;20033;-77
2022/11/05 09:51:41;;;;;;;5.25;2.78;;;;;;;;;;5030572;28;20191;-77
2022/11/05 09:54:09;;;;;;;4.25;2.75;;;;;;;;;;5036960;28;20052;-77
2022/11/05 09:56:39;;;;;;;6.05;3.15;;;;;;;;;;5033492;28;20054;-77
2022/11/05 09:59:12;;;;;;;5.38;3.10;;;;;;;;;;5030653;28;20038;-77
2022/11/05 10:01:38;;;;;;;6.40;2.92;;;;;;;;;;5035529;28;20050;-77
2022/11/05 10:04:09;;;;;;;4.25;2.60;;;;;;;;;;5036080;28;20106;-77
2022/11/05 10:06:38;;;;;;;5.20;2.92;;;;;;;;;;5035412;28;20500;-77
2022/11/05 10:09:11;;;;;;;8.60;3.10;;;;;;;;;;5035206;28;20037;-78
2022/11/05 10:11:43;;;;;;;4.38;3.08;;;;;;;;;;5035389;28;20041;-76
2022/11/05 10:14:30;;;;;;;6.55;3.30;;;;;;;;;;5034679;28;20064;-78
2022/11/05 10:16:59;;;;;;;8.70;3.63;;;;;;;;;;5035632;28;20061;-77
2022/11/05 10:19:30;;;;;;;5.25;3.42;;;;;;;;;;5029884;28;20046;-77
2022/11/05 10:22:02;;;;;;;6.32;3.90;;;;;;;;;;5035360;28;20048;-77
2022/11/05 10:24:28;;;;;;;8.98;3.92;;;;;;;;;;5035762;28;20038;-78
2022/11/05 10:26:54;;;;;;;6.32;3.10;;;;;;;;;;5029742;28;20481;-77
2022/11/05 10:29:28;;;;;;;5.55;3.03;;;;;;;;;;5016995;28;20562;-77
2022/11/05 10:31:54;;;;;;;4.85;3.00;;;;;;;;;;5024220;28;20477;-76
2022/11/05 10:34:23;;;;;;;10.15;6.18;;;;;;;;;;5035355;28;20121;-77
2022/11/05 10:36:49;;;;;;;5.78;2.97;;;;;;;;;;5033607;28;20046;-77
2022/11/05 10:39:16;;;;;;;7.55;3.30;;;;;;;;;;5036343;28;20061;-77
2022/11/05 10:41:48;;;;;;;6.40;2.92;;;;;;;;;;5036205;28;20045;-81
2022/11/05 10:44:26;;;;;;;11.55;3.10;;;;;;;;;;5047747;28;20099;-81
2022/11/05 10:47:11;;;;;;;8.52;3.50;;;;;;;;;;5026472;28;20045;-79
2022/11/05 10:49:37;;;;;;;5.40;2.88;;;;;;;;;;5045310;28;20046;-80
2022/11/05 10:52:11;;;;;;;8.25;3.08;;;;;;;;;;5037137;28;20081;-83
2022/11/05 10:54:38;;;;;;;6.05;2.83;;;;;;;;;;5043105;28;20060;-78
2022/11/05 10:57:24;;;;;;;6.78;3.38;;;;;;;;;;5056753;28;20017;-79
2022/11/05 10:59:50;;;;;;;7.00;3.10;;;;;;;;;;5043300;28;20073;-80
2022/11/05 11:02:20;;;;;;;7.75;3.03;;;;;;;;;;5040733;28;20045;-81
2022/11/05 11:04:51;;;;;;;7.70;3.17;;;;;;;;;;5040313;28;20080;-79
2022/11/05 11:07:22;;;;;;;6.40;3.42;;;;;;;;;;5039021;28;20114;-79
2022/11/05 11:09:49;;;;;;;7.72;2.85;;;;;;;;;;5042710;28;20037;-78
2022/11/05 11:12:19;;;;;;;7.18;3.85;;;;;;;;;;5032030;28;20121;-78
2022/11/05 11:15:04;;;;;;;4.85;2.72;;;;;;;;;;5040913;28;20109;-79
2022/11/05 11:17:31;;;;;;;4.78;2.92;;;;;;;;;;5038478;28;20053;-79
2022/11/05 11:20:13;;;;;;;8.57;2.83;;;;;;;;;;5039745;28;20049;-78
2022/11/05 11:22:39;;;;;;;5.43;2.78;;;;;;;;;;5043742;28;20041;-81
2022/11/05 11:25:23;;;;;;;4.53;2.90;;;;;;;;;;5045583;28;20104;-78
2022/11/05 11:27:50;;;;;;;4.93;2.70;;;;;;;;;;5019914;28;20050;-78
2022/11/05 11:30:17;;;;;;;5.90;2.90;;;;;;;;;;5020138;28;20041;-77
2022/11/05 11:32:43;;;;;;;5.32;3.25;;;;;;;;;;5039189;28;20052;-77
2022/11/05 11:35:18;;;;;;;7.43;2.88;;;;;;;;;;5041531;28;20041;-77
2022/11/05 11:37:45;;;;;;;7.18;2.80;;;;;;;;;;5043577;28;20120;-78
2022/11/05 11:40:20;;;;;;;7.50;2.80;;;;;;;;;;5039058;28;20041;-77
2022/11/05 11:42:47;;;;;;;6.35;2.50;;;;;;;;;;5038824;28;20052;-76
2022/11/05 11:45:19;;;;;;;3.53;2.40;;;;;;;;;;5040088;28;20053;-78
2022/11/05 11:47:46;;;;;;;6.55;2.95;;;;;;;;;;5028159;28;20099;-78
2022/11/05 11:50:30;;;;;;;9.63;2.63;;;;;;;;;;5035334;28;20037;-81
2022/11/05 11:53:15;;;;;;;5.30;2.42;;;;;;;;;;5019173;28;20095;-79
2022/11/05 11:55:55;;;;;;;5.10;2.47;;;;;;;;;;5023655;28;20064;-81
2022/11/05 11:58:22;;;;;;;4.20;2.95;;;;;;;;;;5017417;28;20038;-77
2022/11/05 12:01:17;;;;;;;5.18;2.60;;;;;;;;;;5021066;28;20038;-76
2022/11/05 12:04:02;;;;;;;6.90;2.80;;;;;;;;;;5024171;28;20048;-77
2022/11/05 12:06:33;;;;;;;6.63;2.40;;;;;;;;;;5039744;28;20045;-76
2022/11/05 12:09:02;;;;;;;3.25;2.45;;;;;;;;;;5042827;28;20069;-77
2022/11/05 12:11:35;;;;;;;3.67;2.00;;;;;;;;;;5039466;28;20512;-76
2022/11/05 12:14:03;;;;;;;4.57;2.00;;;;;;;;;;5037273;28;20061;-77
2022/11/05 12:16:40;;;;;;;7.22;2.10;;;;;;;;;;5033858;28;20136;-77
2022/11/05 12:19:10;;;;;;;4.20;2.03;;;;;;;;;;5040113;28;20049;-76
2022/11/05 12:21:40;;;;;;;3.00;2.50;;;;;;;;;;5024878;28;20042;-77
2022/11/05 12:24:15;;;;;;;2.53;1.90;;;;;;;;;;5030506;28;20092;-77
2022/11/05 12:27:14;;;;;;;2.92;2.03;;;;;;;;;;5033919;28;20046;-78
2022/11/05 12:30:00;;;;;;;4.03;1.98;;;;;;;;;;5036929;28;20145;-81
2022/11/05 12:32:32;;;;;;;5.57;2.00;;;;;;;;;;5027305;28;20050;-81
2022/11/05 12:35:05;;;;;;;3.90;2.10;;;;;;;;;;5024431;28;20045;-78
2022/11/05 12:37:50;;;;;;;2.72;1.70;;;;;;;;;;5045437;28;20104;-78
2022/11/05 12:40:27;;;;;;;6.45;2.60;;;;;;;;;;5049374;28;20053;-81
2022/11/05 12:43:03;;;;;;;4.00;2.63;;;;;;;;;;5045309;28;20085;-81
2022/11/05 12:45:29;;;;;;;4.43;1.90;;;;;;;;;;5030328;28;20078;-79
2022/11/05 12:48:13;;;;;;;4.32;1.77;;;;;;;;;;5022560;28;20480;-81
2022/11/05 12:51:05;;;;;;;2.75;1.98;;;;;;;;;;5016971;28;20579;-81
2022/11/05 12:53:37;;;;;;;6.35;2.17;;;;;;;;;;5019939;28;20105;-81
2022/11/05 12:56:09;;;;;;;3.75;2.08;;;;;;;;;;5018660;28;20049;-80
2022/11/05 12:58:39;;;;;;;8.02;2.75;;;;;;;;;;5043351;28;20084;-80
2022/11/05 13:01:15;;;;;;;3.67;2.60;;;;;;;;;;5045631;28;20060;-79
2022/11/05 13:03:50;;;;;;;4.97;2.70;;;;;;;;;;5047429;28;20455;-77
2022/11/05 13:06:18;;;;;;;6.00;2.97;;;;;;;;;;5053040;28;20097;-82
2022/11/05 13:08:49;;;;;;;7.07;2.78;;;;;;;;;;5051109;28;20032;-81
2022/11/05 13:11:23;;;;;;;5.88;3.10;;;;;;;;;;5053818;28;20049;-80
2022/11/05 13:13:58;;;;;;;9.30;3.00;;;;;;;;;;5050384;28;20057;-83
2022/11/05 13:16:35;;;;;;;7.80;3.03;;;;;;;;;;5053817;28;20095;-81
2022/11/05 13:19:25;;;;;;;6.88;3.03;;;;;;;;;;5058027;28;20041;-80
2022/11/05 13:21:56;;;;;;;5.15;3.28;;;;;;;;;;5035582;28;20053;-81
2022/11/05 13:24:34;;;;;;;5.63;3.42;;;;;;;;;;5026061;28;20050;-84
2022/11/05 13:27:03;;;;;;;5.25;3.60;;;;;;;;;;5026142;28;20061;-80
2022/11/05 13:29:31;;;;;;;6.65;3.40;;;;;;;;;;5025802;28;20105;-80
2022/11/05 13:32:07;;;;;;;8.23;3.63;;;;;;;;;;5028330;28;20042;-81
2022/11/05 13:34:33;;;;;;;7.53;3.92;;;;;;;;;;5026603;28;20464;-81
2022/11/05 13:39:55;;;;;;;6.97;3.92;;;;;;;;;;5032976;28;20049;-80
2022/11/05 13:42:30;;;;;;;8.13;4.35;;;;;;;;;;5034436;28;20046;-80
2022/11/05 13:45:25;;;;;;;6.68;3.75;;;;;;;;;;5034372;28;20026;-80
2022/11/05 13:48:10;;;;;;;9.57;4.38;;;;;;;;;;5025452;28;20050;-80
2022/11/05 13:50:57;;;;;;;6.85;4.22;;;;;;;;;;4998593;28;20086;-80
2022/11/05 13:53:32;;;;;;;7.93;4.50;;;;;;;;;;5033985;28;20056;-81
2022/11/05 13:56:04;;;;;;;6.82;4.50;;;;;;;;;;5035948;28;20022;-81
2022/11/05 13:58:49;;;;;;;9.90;4.57;;;;;;;;;;5040996;28;20061;-81
2022/11/05 14:01:24;;;;;;;8.50;4.32;;;;;;;;;;5052681;28;20050;-82
2022/11/05 14:03:52;;;;;;;7.35;3.92;;;;;;;;;;5046507;28;20512;-79
2022/11/05 14:06:25;;;;;;;7.47;4.28;;;;;;;;;;5049349;28;20038;-82
2022/11/05 14:08:55;;;;;;;7.22;4.60;;;;;;;;;;5049222;28;20043;-78
2022/11/05 14:11:30;;;;;;;9.30;4.75;;;;;;;;;;5047603;28;20166;-79
2022/11/05 14:13:57;;;;;;;7.70;4.07;;;;;;;;;;5027611;28;20118;-81
2022/11/05 14:16:25;;;;;;;5.88;4.20;;;;;;;;;;5035432;28;20067;-80
2022/11/05 14:19:14;;;;;;;11.27;4.70;;;;;;;;;;5034499;28;20057;-80
2022/11/05 14:21:56;;;;;;;6.45;4.20;;;;;;;;;;5028150;28;20120;-80
2022/11/05 14:24:22;;;;;;;10.00;4.65;;;;;;;;;;5030380;28;20041;-80
2022/11/05 14:27:00;;;;;;;9.48;4.88;;;;;;;;;;5028079;28;20117;-80
2022/11/05 14:29:43;;;;;;;8.40;5.03;;;;;;;;;;5035112;28;20049;-80
2022/11/05 14:32:18;;;;;;;12.40;5.90;;;;;;;;;;5032805;28;20378;-79
2022/11/05 14:34:47;;;;;;;9.02;4.63;;;;;;;;;;5033017;28;20049;-80
2022/11/05 14:37:21;;;;;;;7.75;4.75;;;;;;;;;;5035066;28;20133;-80
2022/11/05 14:39:47;;;;;;;8.02;4.30;;;;;;;;;;5034168;28;20092;-80
2022/11/05 14:42:25;;;;;;;6.60;4.30;;;;;;;;;;5033074;28;20048;-80
2022/11/05 14:45:18;;;;;;;10.32;5.00;;;;;;;;;;5035331;28;20041;-80
2022/11/05 14:47:51;;;;;;;7.18;4.40;;;;;;;;;;5019202;28;20088;-80
2022/11/05 14:50:19;;;;;;;6.72;4.03;;;;;;;;;;5034317;28;20104;-80
2022/11/05 14:52:53;;;;;;;9.48;4.63;;;;;;;;;;5034387;28;20045;-80
2022/11/05 14:55:25;;;;;;;10.23;4.28;;;;;;;;;;5034233;28;20052;-80
2022/11/05 14:57:51;;;;;;;6.55;3.90;;;;;;;;;;5038290;28;20042;-80
2022/11/05 15:00:41;;;;;;;10.40;4.45;;;;;;;;;;5024041;28;20044;-80
2022/11/05 15:03:26;;;;;;;7.78;4.22;;;;;;;;;;5034101;28;20080;-80
2022/11/05 15:06:02;;;;;;;5.78;3.67;;;;;;;;;;5025552;28;20116;-80
2022/11/05 15:08:47;;;;;;;9.63;4.82;;;;;;;;;;5034107;28;20125;-80
2022/11/05 15:11:15;;;;;;;5.95;4.13;;;;;;;;;;5032128;28;20045;-80
2022/11/05 15:13:48;;;;;;;10.20;5.10;;;;;;;;;;5026487;28;20054;-80
2022/11/05 15:16:24;;;;;;;6.68;4.40;;;;;;;;;;5020699;28;20045;-80
2022/11/05 15:18:50;;;;;;;;;;;;;;;;;;5025762;28;20033;-80
2022/11/05 15:21:18;;;;;;;7.50;4.40;;;;;;;;;;5029758;28;19928;-80
2022/11/05 15:23:45;;;;;;;6.95;3.75;;;;;;;;;;5025103;28;20092;-80
2022/11/05 15:26:13;;;;;;;9.10;4.03;;;;;;;;;;5027334;28;20046;-79
2022/11/05 15:28:44;;;;;;;9.68;4.43;;;;;;;;;;5024010;28;20038;-80
2022/11/05 15:31:13;;;;;;;7.88;4.25;;;;;;;;;;5026196;28;20457;-80
2022/11/05 15:33:43;;;;;;;10.07;5.13;;;;;;;;;;5027205;28;20384;-80
2022/11/05 15:36:29;;;;;;;7.45;5.35;;;;;;;;;;5026693;28;20033;-80
2022/11/05 15:38:55;;;;;;;9.32;5.57;;;;;;;;;;5029661;28;20044;-79
2022/11/05 15:41:25;;;;;;;10.57;5.88;;;;;;;;;;5029079;28;20049;-80
2022/11/05 15:43:52;;;;;;;9.05;6.88;;;;;;;;;;5028941;28;20447;-80